Time;durP1;ratioP1;P1;durP2;ratioP2;P2;SDS_P1;SDS_P2;PMS_P1;PMS_P2;Temp;Humidity;BMP_temperature;BMP_pressure;BME280_temperature;BME280_humidity;BME280_pressure;Samples;Min_cycle;Max_cycle;Signal;HPM_P1;HPM_P2
2022/12/31 00:00:18;;;;;;;2.50;2.30;;;;;;;15.88;65.94;99898.78;688329;28;1182;-78
2022/12/31 00:00:39;;;;;;;3.00;2.70;;;;;;;15.87;65.97;99902.31;688201;28;1069;-77
2022/12/31 00:01:01;;;;;;;3.08;2.75;;;;;;;15.88;65.96;99888.25;688339;28;1302;-78
2022/12/31 00:01:24;;;;;;;2.83;2.55;;;;;;;15.88;65.97;99895.31;685552;28;1372;-77
2022/12/31 00:01:44;;;;;;;2.45;2.25;;;;;;;15.86;65.98;99889.19;685348;28;1129;-77
2022/12/31 00:02:05;;;;;;;2.42;2.22;;;;;;;15.92;65.97;99894.38;682870;28;1292;-77
2022/12/31 00:02:26;;;;;;;2.40;2.20;;;;;;;15.89;65.85;99887.41;680305;29;1079;-78
2022/12/31 00:02:46;;;;;;;3.13;2.40;;;;;;;15.88;66.16;99887.41;682773;28;1198;-78
2022/12/31 00:03:08;;;;;;;3.17;2.30;;;;;;;15.94;65.96;99899.63;685487;28;1174;-77
2022/12/31 00:03:29;;;;;;;2.92;2.20;;;;;;;15.89;66.04;99895.28;685479;28;1291;-77
2022/12/31 00:03:50;;;;;;;2.03;1.93;;;;;;;15.94;65.96;99897.00;685550;28;1108;-77
2022/12/31 00:04:11;;;;;;;2.03;1.92;;;;;;;15.87;66.04;99891.78;685495;28;1059;-77
2022/12/31 00:04:32;;;;;;;2.00;1.90;;;;;;;15.88;66.01;99890.03;682952;28;1433;-77
2022/12/31 00:04:53;;;;;;;2.20;2.10;;;;;;;15.84;66.10;99881.28;680132;29;1249;-77
2022/12/31 00:05:14;;;;;;;2.30;2.10;;;;;;;15.86;66.09;99890.03;680282;29;1468;-78
2022/12/31 00:05:35;;;;;;;2.60;2.28;;;;;;;15.86;66.08;99879.53;682849;29;1025;-78
2022/12/31 00:05:56;;;;;;;2.72;2.17;;;;;;;15.85;66.16;99882.19;685561;28;1393;-78
2022/12/31 00:06:27;;;;;;;2.30;2.10;;;;;;;15.96;66.09;99892.59;685478;28;1344;-77
2022/12/31 00:06:48;;;;;;;2.40;2.20;;;;;;;15.87;66.11;99877.78;685313;28;1141;-77
2022/12/31 00:07:08;;;;;;;2.45;2.25;;;;;;;15.90;66.16;99880.38;685383;28;1059;-77
2022/12/31 00:07:29;;;;;;;3.30;2.30;;;;;;;15.90;66.11;99886.50;685120;28;1100;-78
2022/12/31 00:07:50;;;;;;;3.45;2.40;;;;;;;15.86;66.14;99881.28;688092;28;938;-78
2022/12/31 00:08:10;;;;;;;3.08;2.30;;;;;;;15.95;66.28;99893.47;691003;28;1133;-77
2022/12/31 00:08:31;;;;;;;2.43;2.20;;;;;;;15.90;66.24;99886.50;685142;28;1140;-77
2022/12/31 00:08:54;;;;;;;2.43;2.10;;;;;;;15.83;66.26;99879.56;682838;29;1406;-76
2022/12/31 00:09:14;;;;;;;3.30;2.20;;;;;;;15.85;66.48;99876.91;684918;28;1270;-76
2022/12/31 00:09:35;;;;;;;2.90;2.20;;;;;;;15.87;66.29;99881.25;682816;29;1128;-77
2022/12/31 00:09:55;;;;;;;2.75;2.40;;;;;;;15.85;66.25;99883.03;685582;28;941;-77
2022/12/31 00:10:16;;;;;;;2.50;2.30;;;;;;;15.89;66.11;99882.13;685480;28;1114;-77
2022/12/31 00:10:40;;;;;;;2.60;2.30;;;;;;;15.89;66.27;99876.88;685063;28;1035;-76
2022/12/31 00:11:01;;;;;;;2.28;2.03;;;;;;;15.93;66.15;99890.88;685607;28;1255;-77
2022/12/31 00:11:23;;;;;;;2.17;2.03;;;;;;;15.94;66.22;99881.22;682935;29;1195;-77
2022/12/31 00:11:43;;;;;;;3.20;2.47;;;;;;;15.91;66.24;99879.47;682782;28;1351;-76
2022/12/31 00:12:04;;;;;;;3.10;2.33;;;;;;;15.97;66.26;99878.56;682920;28;1022;-77
2022/12/31 00:12:24;;;;;;;2.60;2.40;;;;;;;15.96;66.17;99879.44;685579;28;1230;-77
2022/12/31 00:12:45;;;;;;;2.50;2.30;;;;;;;16.01;66.17;99888.16;685387;28;1120;-76
2022/12/31 00:13:08;;;;;;;2.42;2.28;;;;;;;15.93;66.11;99874.22;685621;28;1021;-76
2022/12/31 00:13:29;;;;;;;2.10;2.00;;;;;;;15.99;66.16;99880.28;680338;29;1148;-77
2022/12/31 00:13:50;;;;;;;2.30;2.10;;;;;;;15.99;66.11;99876.78;685435;28;1290;-76
2022/12/31 00:14:11;;;;;;;2.38;2.17;;;;;;;15.98;65.94;99869.78;688225;28;1091;-76
2022/12/31 00:14:31;;;;;;;2.40;2.10;;;;;;;15.98;65.96;99873.28;685490;28;1135;-76
2022/12/31 00:14:52;;;;;;;2.20;2.00;;;;;;;15.92;65.96;99872.47;685556;28;1084;-76
2022/12/31 00:15:13;;;;;;;2.28;2.08;;;;;;;16.01;66.13;99880.28;685639;28;992;-77
2022/12/31 00:15:33;;;;;;;2.55;2.35;;;;;;;15.99;65.67;99866.28;685655;28;1108;-76
2022/12/31 00:15:54;;;;;;;2.63;2.43;;;;;;;15.95;65.99;99880.31;688161;28;1181;-76
2022/12/31 00:16:18;;;;;;;2.60;2.40;;;;;;;15.97;66.18;99876.81;685493;28;1194;-77
2022/12/31 00:16:41;;;;;;;2.40;2.20;;;;;;;15.95;66.14;99873.31;685420;28;1115;-77
2022/12/31 00:17:01;;;;;;;2.40;2.20;;;;;;;16.01;66.12;99885.53;688220;28;810;-77
2022/12/31 00:17:22;;;;;;;2.13;2.00;;;;;;;15.94;65.94;99871.56;685613;28;1121;-77
2022/12/31 00:17:42;;;;;;;2.20;2.00;;;;;;;16.00;65.92;99878.53;687961;28;1164;-76
2022/12/31 00:18:03;;;;;;;2.10;1.90;;;;;;;16.00;65.91;99875.91;685562;28;1153;-76
2022/12/31 00:18:25;;;;;;;2.40;2.07;;;;;;;16.04;65.83;99875.84;682690;29;1972;-76
2022/12/31 00:18:48;;;;;;;2.92;2.20;;;;;;;15.97;65.83;99865.41;680142;28;1150;-76
2022/12/31 00:19:10;;;;;;;2.30;2.10;;;;;;;16.02;65.82;99868.88;682899;28;1028;-77
2022/12/31 00:19:31;;;;;;;2.40;2.05;;;;;;;16.05;65.87;99879.38;682922;28;1360;-77
2022/12/31 00:19:52;;;;;;;2.28;1.90;;;;;;;16.09;65.86;99877.59;682652;28;1280;-77
2022/12/31 00:20:13;;;;;;;2.42;2.00;;;;;;;15.99;65.70;99868.91;682872;29;1274;-77
2022/12/31 00:20:33;;;;;;;2.20;2.00;;;;;;;16.02;65.84;99871.50;682914;29;1075;-76
2022/12/31 00:20:54;;;;;;;2.30;2.10;;;;;;;16.03;65.77;99875.88;682840;28;1087;-77
2022/12/31 00:21:21;;;;;;;2.38;2.17;;;;;;;16.04;65.86;99880.25;682899;29;1296;-77
2022/12/31 00:21:42;;;;;;;2.33;2.10;;;;;;;16.04;65.81;99875.84;685278;28;1188;-76
2022/12/31 00:22:03;;;;;;;2.50;2.00;;;;;;;16.10;65.75;99879.34;685498;28;1171;-77
2022/12/31 00:22:23;;;;;;;2.80;1.90;;;;;;;16.06;65.66;99870.59;682848;28;1102;-77
2022/12/31 00:22:44;;;;;;;2.77;2.20;;;;;;;16.04;65.67;99867.09;685414;28;1016;-77
2022/12/31 00:23:05;;;;;;;2.67;2.28;;;;;;;16.07;65.74;99872.34;685612;28;1088;-76
2022/12/31 00:23:25;;;;;;;2.60;2.40;;;;;;;16.12;65.55;99869.66;688222;28;1260;-77
2022/12/31 00:23:47;;;;;;;2.40;2.20;;;;;;;16.08;65.42;99858.28;688001;28;1057;-77
2022/12/31 00:24:09;;;;;;;2.30;2.10;;;;;;;16.16;65.26;99869.63;685422;28;1260;-77
2022/12/31 00:24:30;;;;;;;2.20;2.00;;;;;;;16.10;65.25;99855.66;689774;28;1272;-76
2022/12/31 00:24:50;;;;;;;2.20;1.95;;;;;;;16.06;65.37;99854.81;688135;28;1164;-77
2022/12/31 00:25:11;;;;;;;2.25;2.08;;;;;;;16.08;65.36;99858.28;685488;28;1074;-76
2022/12/31 00:25:34;;;;;;;2.30;2.10;;;;;;;16.08;65.42;99857.41;682835;28;1163;-77
2022/12/31 00:25:54;;;;;;;2.33;2.13;;;;;;;16.05;65.34;99860.97;685478;28;1054;-76
2022/12/31 00:26:17;;;;;;;2.42;2.10;;;;;;;16.06;65.22;99862.69;682834;28;1379;-77
2022/12/31 00:26:38;;;;;;;2.78;2.13;;;;;;;16.04;65.30;99857.44;682802;29;1132;-77
2022/12/31 00:26:58;;;;;;;2.57;2.20;;;;;;;16.02;65.30;99859.22;680230;29;1005;-76
2022/12/31 00:27:21;;;;;;;2.63;2.30;;;;;;;15.97;65.38;99844.38;680041;28;1221;-77
2022/12/31 00:27:42;;;;;;;2.80;2.20;;;;;;;16.00;65.45;99860.13;682745;28;1047;-77
2022/12/31 00:28:03;;;;;;;2.70;2.07;;;;;;;16.00;65.45;99849.59;688124;28;1201;-77
2022/12/31 00:28:25;;;;;;;2.40;2.05;;;;;;;16.00;65.37;99849.59;691028;28;1267;-76
2022/12/31 00:28:47;;;;;;;2.40;2.10;;;;;;;16.03;65.17;99839.03;685417;28;1408;-77
2022/12/31 00:29:09;;;;;;;2.22;2.03;;;;;;;16.05;65.32;99850.44;682876;28;1251;-77
2022/12/31 00:29:29;;;;;;;2.20;2.00;;;;;;;16.04;65.55;99846.03;682804;29;1177;-77
2022/12/31 00:29:50;;;;;;;2.00;1.80;;;;;;;16.04;65.36;99843.41;680214;29;1021;-76
2022/12/31 00:30:11;;;;;;;2.15;1.80;;;;;;;15.98;65.39;99841.69;680124;29;1173;-76
2022/12/31 00:30:33;;;;;;;2.47;1.75;;;;;;;15.97;65.35;99836.47;683006;28;1267;-77
2022/12/31 00:30:53;;;;;;;2.78;1.88;;;;;;;16.00;65.43;99855.72;685415;28;1216;-76
2022/12/31 00:31:23;;;;;;;2.40;1.87;;;;;;;16.06;65.38;99861.81;685585;28;1307;-77
2022/12/31 00:31:43;;;;;;;1.98;1.80;;;;;;;16.02;65.57;99859.22;685372;28;1032;-77
2022/12/31 00:32:04;;;;;;;1.90;1.80;;;;;;;16.02;65.31;99851.31;682766;28;1197;-77
2022/12/31 00:32:25;;;;;;;1.80;1.70;;;;;;;16.06;65.28;99860.06;685397;28;1343;-77
2022/12/31 00:32:46;;;;;;;2.00;1.73;;;;;;;16.03;65.43;99849.56;686827;28;1017;-77
2022/12/31 00:33:06;;;;;;;2.50;1.90;;;;;;;16.05;65.25;99860.97;687005;28;985;-76
2022/12/31 00:33:27;;;;;;;2.10;1.90;;;;;;;15.97;65.41;99850.50;686046;28;1038;-77
2022/12/31 00:33:47;;;;;;;2.10;1.90;;;;;;;15.99;65.38;99847.84;688927;28;1143;-76
2022/12/31 00:34:08;;;;;;;1.90;1.70;;;;;;;16.06;65.46;99859.19;685514;28;1204;-76
2022/12/31 00:34:29;;;;;;;2.20;2.00;;;;;;;16.00;65.29;99855.72;685490;28;1316;-77
2022/12/31 00:34:51;;;;;;;2.20;2.00;;;;;;;16.03;65.28;99855.69;685425;28;993;-76
2022/12/31 00:35:11;;;;;;;2.03;1.93;;;;;;;16.08;65.04;99854.78;685472;28;1071;-76
2022/12/31 00:35:33;;;;;;;1.80;1.70;;;;;;;16.08;65.04;99853.03;682876;28;1403;-77
2022/12/31 00:36:02;;;;;;;1.80;1.70;;;;;;;16.02;65.29;99850.44;685429;28;1098;-76
2022/12/31 00:36:25;;;;;;;1.90;1.80;;;;;;;16.09;65.26;99865.28;687012;28;1099;-76
2022/12/31 00:36:46;;;;;;;1.90;1.80;;;;;;;16.04;65.16;99862.72;685109;28;1020;-77
2022/12/31 00:37:06;;;;;;;1.80;1.70;;;;;;;16.07;65.15;99856.53;688277;28;1171;-76
2022/12/31 00:37:27;;;;;;;2.20;1.80;;;;;;;16.09;64.95;99849.50;688565;28;1009;-76
2022/12/31 00:37:51;;;;;;;2.15;1.80;;;;;;;16.10;65.08;99856.50;690851;28;1094;-78
2022/12/31 00:38:12;;;;;;;2.20;1.92;;;;;;;16.20;64.96;99866.94;693517;28;1912;-76
2022/12/31 00:38:33;;;;;;;1.90;1.80;;;;;;;16.08;64.94;99853.03;685475;28;1069;-77
2022/12/31 00:38:55;;;;;;;1.90;1.80;;;;;;;16.08;65.17;99849.50;685463;28;1096;-76
2022/12/31 00:39:15;;;;;;;1.85;1.75;;;;;;;16.02;64.95;99847.81;688255;28;1126;-77
2022/12/31 00:39:36;;;;;;;3.40;1.80;;;;;;;16.09;65.14;99854.75;688224;28;1119;-77
2022/12/31 00:39:56;;;;;;;3.43;1.90;;;;;;;16.09;64.89;99857.41;688179;28;1186;-77
2022/12/31 00:40:17;;;;;;;4.05;2.08;;;;;;;16.15;65.02;99862.59;685642;28;1115;-77
2022/12/31 00:40:39;;;;;;;2.25;1.88;;;;;;;16.10;64.92;99853.88;685261;28;1628;-77
2022/12/31 00:41:00;;;;;;;2.08;1.75;;;;;;;16.05;64.88;99853.06;685556;28;1207;-77
2022/12/31 00:41:21;;;;;;;1.60;1.50;;;;;;;16.09;64.87;99851.28;688117;28;1230;-77
2022/12/31 00:41:42;;;;;;;1.70;1.42;;;;;;;16.14;64.91;99862.63;688127;28;1326;-77
2022/12/31 00:42:03;;;;;;;2.00;1.60;;;;;;;16.09;64.88;99854.75;688204;28;1146;-77
2022/12/31 00:42:24;;;;;;;2.95;1.77;;;;;;;16.09;64.80;99865.28;688352;28;785;-76
2022/12/31 00:42:45;;;;;;;2.50;1.80;;;;;;;16.09;64.66;99859.19;688032;28;1041;-77
2022/12/31 00:43:05;;;;;;;2.20;1.70;;;;;;;16.13;64.70;99861.75;688815;28;1155;-77
2022/12/31 00:43:26;;;;;;;1.80;1.70;;;;;;;16.18;64.87;99875.72;688550;28;1438;-77
2022/12/31 00:43:47;;;;;;;2.03;1.88;;;;;;;16.08;64.69;99862.66;688072;28;1200;-77
2022/12/31 00:44:11;;;;;;;2.20;2.00;;;;;;;16.07;64.68;99864.44;688582;28;992;-77
2022/12/31 00:44:31;;;;;;;2.10;2.00;;;;;;;16.05;65.17;99868.84;688180;28;1166;-77
2022/12/31 00:44:52;;;;;;;1.90;1.80;;;;;;;16.06;64.74;99867.06;690791;28;1191;-76
2022/12/31 00:45:12;;;;;;;1.80;1.70;;;;;;;16.05;64.80;99868.84;690916;28;1070;-77
2022/12/31 00:45:33;;;;;;;1.70;1.60;;;;;;;16.03;64.66;99870.59;685504;28;1264;-76
2022/12/31 00:45:53;;;;;;;1.60;1.50;;;;;;;16.12;64.86;99873.16;687374;28;1349;-76
2022/12/31 00:46:16;;;;;;;1.70;1.60;;;;;;;16.11;64.80;99871.41;690787;28;1223;-76
2022/12/31 00:46:37;;;;;;;1.70;1.60;;;;;;;16.07;64.78;99872.34;690642;28;1244;-77
2022/12/31 00:46:57;;;;;;;1.90;1.70;;;;;;;16.14;64.60;99874.03;690689;28;870;-76
2022/12/31 00:47:18;;;;;;;1.70;1.60;;;;;;;16.12;64.51;99875.78;690896;28;1075;-76
2022/12/31 00:47:39;;;;;;;2.00;1.60;;;;;;;16.12;64.48;99870.50;690722;28;1198;-77
2022/12/31 00:47:59;;;;;;;2.40;1.77;;;;;;;16.13;64.73;99877.56;688159;28;1076;-76
2022/12/31 00:48:20;;;;;;;2.47;1.90;;;;;;;16.02;64.84;99863.59;688043;28;1226;-76
2022/12/31 00:48:41;;;;;;;2.07;1.80;;;;;;;16.02;64.47;99863.59;685183;28;1190;-76
2022/12/31 00:49:02;;;;;;;2.50;1.60;;;;;;;16.02;64.69;99868.88;685512;28;1084;-76
2022/12/31 00:49:22;;;;;;;2.30;1.40;;;;;;;15.98;64.68;99877.69;688164;28;1404;-76
2022/12/31 00:49:43;;;;;;;2.10;1.45;;;;;;;15.92;64.75;99856.69;690728;28;1180;-76
2022/12/31 00:50:04;;;;;;;1.60;1.40;;;;;;;15.96;64.86;99879.44;688108;28;1176;-76
2022/12/31 00:50:25;;;;;;;1.88;1.52;;;;;;;15.92;64.57;99877.72;685688;28;918;-76
2022/12/31 00:50:45;;;;;;;2.00;1.60;;;;;;;15.91;64.84;99871.59;685372;28;1059;-76
2022/12/31 00:51:09;;;;;;;2.22;1.80;;;;;;;15.92;64.91;99880.38;685570;28;1085;-76
2022/12/31 00:51:29;;;;;;;2.00;1.70;;;;;;;15.90;64.84;99869.84;685533;28;1176;-76
2022/12/31 00:51:50;;;;;;;2.50;1.60;;;;;;;15.87;65.09;99869.88;687074;28;1100;-76
2022/12/31 00:52:12;;;;;;;2.90;1.80;;;;;;;15.90;64.87;99862.84;688043;28;1000;-76
2022/12/31 00:52:33;;;;;;;3.00;1.80;;;;;;;15.94;64.94;99875.94;688181;28;1421;-76
2022/12/31 00:52:54;;;;;;;2.30;1.73;;;;;;;15.83;65.10;99862.88;685403;28;1165;-76
2022/12/31 00:53:15;;;;;;;2.10;1.60;;;;;;;15.82;65.10;99875.19;685557;28;1265;-77
2022/12/31 00:53:36;;;;;;;2.30;1.60;;;;;;;15.81;65.23;99868.19;682842;28;1125;-76
2022/12/31 00:53:57;;;;;;;1.80;1.50;;;;;;;15.79;65.22;99872.56;685599;28;862;-76
2022/12/31 00:54:18;;;;;;;1.77;1.38;;;;;;;15.76;65.37;99872.59;688071;28;1370;-76
2022/12/31 00:54:38;;;;;;;1.73;1.40;;;;;;;15.79;65.67;99855.91;685521;28;1210;-76
2022/12/31 00:54:59;;;;;;;1.80;1.40;;;;;;;15.81;65.36;99875.19;685611;28;878;-76
2022/12/31 00:55:19;;;;;;;1.50;1.40;;;;;;;15.72;65.68;99876.13;685551;28;1230;-76
2022/12/31 00:55:40;;;;;;;1.40;1.30;;;;;;;15.72;65.74;99876.13;682605;29;1307;-76
2022/12/31 00:56:04;;;;;;;1.40;1.30;;;;;;;15.74;65.80;99869.13;682899;29;1348;-76
2022/12/31 00:56:27;;;;;;;1.40;1.30;;;;;;;15.76;65.73;99872.59;682888;28;851;-76
2022/12/31 00:56:54;;;;;;;1.40;1.30;;;;;;;15.76;65.75;99862.06;685334;28;1064;-76
2022/12/31 00:57:14;;;;;;;1.50;1.40;;;;;;;15.74;65.81;99871.75;685594;28;1210;-77
2022/12/31 00:57:35;;;;;;;1.50;1.40;;;;;;;15.74;65.72;99864.72;685530;28;1043;-77
2022/12/31 00:57:56;;;;;;;1.40;1.30;;;;;;;15.71;66.06;99863.84;688214;28;819;-77
2022/12/31 00:58:17;;;;;;;1.40;1.30;;;;;;;15.72;65.87;99876.13;688118;28;1980;-77
2022/12/31 00:58:38;;;;;;;1.60;1.40;;;;;;;15.69;66.11;99882.31;685999;28;1128;-77
2022/12/31 00:58:59;;;;;;;1.90;1.40;;;;;;;15.70;66.12;99878.78;691439;28;1248;-77
2022/12/31 00:59:19;;;;;;;2.03;1.50;;;;;;;15.62;66.32;99872.72;691538;28;1220;-77
2022/12/31 00:59:40;;;;;;;1.67;1.40;;;;;;;15.62;66.43;99864.81;688488;28;1265;-77
2022/12/31 01:00:01;;;;;;;1.52;1.42;;;;;;;15.61;66.44;99863.94;688747;28;1031;-77
2022/12/31 01:00:21;;;;;;;1.43;1.33;;;;;;;15.58;66.47;99863.97;685988;28;1309;-76
2022/12/31 01:00:42;;;;;;;1.40;1.30;;;;;;;15.60;66.47;99863.94;685985;28;1157;-77
2022/12/31 01:01:20;;;;;;;1.70;1.42;;;;;;;15.63;66.62;99856.91;683285;28;1182;-76
2022/12/31 01:01:42;;;;;;;3.10;1.50;;;;;;;15.67;66.56;99856.91;685908;28;1195;-77
2022/12/31 01:02:02;;;;;;;2.72;1.52;;;;;;;15.67;66.53;99862.16;688641;28;1434;-76
2022/12/31 01:02:23;;;;;;;1.60;1.50;;;;;;;15.68;66.52;99863.91;691473;28;811;-76
2022/12/31 01:02:43;;;;;;;1.50;1.40;;;;;;;15.63;66.66;99874.44;688591;28;1056;-76
2022/12/31 01:03:05;;;;;;;1.50;1.40;;;;;;;15.59;66.62;99863.09;688610;28;1067;-76
2022/12/31 01:03:25;;;;;;;1.52;1.42;;;;;;;15.62;66.72;99851.66;688908;28;891;-78
2022/12/31 01:03:48;;;;;;;1.60;1.50;;;;;;;15.67;66.68;99864.78;688644;28;1075;-76
2022/12/31 01:04:16;;;;;;;1.60;1.50;;;;;;;15.65;66.75;99880.56;683953;28;1148;-78
2022/12/31 01:04:36;;;;;;;1.70;1.60;;;;;;;15.51;66.96;99862.25;685933;28;1168;-78
2022/12/31 01:04:57;;;;;;;1.80;1.60;;;;;;;15.51;67.04;99864.91;685951;28;1074;-77
2022/12/31 01:05:18;;;;;;;2.70;1.52;;;;;;;15.54;67.24;99864.00;683447;29;1205;-78
2022/12/31 01:05:38;;;;;;;2.50;1.40;;;;;;;15.46;67.15;99864.03;683273;29;1007;-79
2022/12/31 01:05:59;;;;;;;2.50;1.38;;;;;;;15.53;67.38;99883.25;683368;29;851;-78
2022/12/31 01:06:20;;;;;;;1.40;1.30;;;;;;;15.51;67.26;99871.91;683394;29;1204;-76
2022/12/31 01:06:42;;;;;;;1.55;1.45;;;;;;;15.44;67.34;99860.56;683215;29;1086;-77
2022/12/31 01:07:02;;;;;;;1.70;1.60;;;;;;;15.43;67.51;99856.19;685977;28;1076;-76
2022/12/31 01:07:23;;;;;;;1.80;1.60;;;;;;;15.43;67.58;99866.72;686122;28;1405;-77
2022/12/31 01:07:43;;;;;;;1.92;1.60;;;;;;;15.42;67.56;99860.56;688518;28;1196;-77
2022/12/31 01:08:04;;;;;;;1.70;1.40;;;;;;;15.42;67.51;99871.06;685996;28;1078;-77
2022/12/31 01:08:25;;;;;;;1.60;1.50;;;;;;;15.37;67.61;99851.84;688665;28;1055;-77
2022/12/31 01:08:47;;;;;;;1.45;1.35;;;;;;;15.46;67.32;99870.19;688648;28;1153;-77
2022/12/31 01:09:09;;;;;;;1.50;1.40;;;;;;;15.39;67.54;99864.97;688471;28;1421;-77
2022/12/31 01:09:30;;;;;;;1.40;1.30;;;;;;;15.44;67.63;99884.22;691480;28;1413;-78
2022/12/31 01:09:52;;;;;;;1.40;1.30;;;;;;;15.37;67.77;99854.47;691414;28;1111;-77
2022/12/31 01:11:17;;;;;;;1.40;1.30;;;;;;;15.40;67.71;99854.44;691287;28;1339;-77
2022/12/31 01:11:32;;;;;;;1.40;1.30;;;;;;;15.34;67.85;99863.25;688715;28;1116;-77
2022/12/31 01:11:53;;;;;;;2.10;1.30;;;;;;;15.35;68.09;99862.38;691244;28;1215;-76
2022/12/31 01:12:13;;;;;;;2.17;1.30;;;;;;;15.35;68.13;99856.22;688672;28;1184;-76
2022/12/31 01:12:34;;;;;;;2.08;1.20;;;;;;;15.30;68.13;99850.16;685944;28;1050;-77
2022/12/31 01:12:55;;;;;;;1.40;1.30;;;;;;;15.30;68.08;99851.00;685676;28;1118;-77
2022/12/31 01:13:15;;;;;;;1.42;1.33;;;;;;;15.31;67.94;99859.78;686117;28;1005;-77
2022/12/31 01:13:36;;;;;;;1.40;1.30;;;;;;;15.34;68.37;99865.88;691510;28;1205;-78
2022/12/31 01:14:00;;;;;;;1.40;1.30;;;;;;;15.27;68.30;99852.78;688776;28;830;-78
2022/12/31 01:14:21;;;;;;;1.42;1.33;;;;;;;15.30;68.16;99847.50;686121;28;1045;-76
2022/12/31 01:14:41;;;;;;;1.60;1.50;;;;;;;15.28;68.29;99850.16;688534;28;1436;-77
2022/12/31 01:15:02;;;;;;;4.00;1.67;;;;;;;15.34;68.20;99868.50;686099;28;1071;-77
2022/12/31 01:15:23;;;;;;;3.90;1.60;;;;;;;15.28;68.42;99854.50;685978;28;1299;-77
2022/12/31 01:15:43;;;;;;;4.05;1.60;;;;;;;15.27;68.32;99847.50;685742;28;1069;-78
2022/12/31 01:16:08;;;;;;;1.73;1.50;;;;;;;15.26;68.39;99846.66;687899;28;1262;-77
2022/12/31 01:16:36;;;;;;;1.70;1.40;;;;;;;15.27;68.42;99844.88;685966;28;1194;-76
2022/12/31 01:16:56;;;;;;;1.70;1.20;;;;;;;15.27;68.48;99843.16;685826;28;842;-77
2022/12/31 01:17:17;;;;;;;1.73;1.35;;;;;;;15.27;68.31;99851.03;685931;28;1177;-77
2022/12/31 01:17:38;;;;;;;2.10;1.50;;;;;;;15.30;68.47;99848.38;685503;28;1109;-77
2022/12/31 01:17:58;;;;;;;1.67;1.58;;;;;;;15.28;68.46;99851.88;688809;28;814;-77
2022/12/31 01:18:19;;;;;;;1.83;1.60;;;;;;;15.25;68.47;99846.66;685843;28;1986;-77
2022/12/31 01:18:40;;;;;;;1.60;1.50;;;;;;;15.31;68.54;99860.63;685923;28;1024;-77
2022/12/31 01:19:04;;;;;;;1.50;1.40;;;;;;;15.32;68.46;99851.84;683375;29;1245;-77
2022/12/31 01:19:28;;;;;;;1.35;1.25;;;;;;;15.24;68.55;99830.00;688638;28;1459;-77
2022/12/31 01:19:49;;;;;;;1.30;1.20;;;;;;;15.26;68.66;99841.41;685886;28;1268;-77
2022/12/31 01:20:10;;;;;;;1.30;1.20;;;;;;;15.27;68.44;99837.00;686133;28;996;-77
2022/12/31 01:20:35;;;;;;;1.60;1.30;;;;;;;15.27;68.67;99840.50;686082;28;1048;-77
2022/12/31 01:21:00;;;;;;;1.70;1.42;;;;;;;15.29;68.65;99851.88;683272;29;1236;-77
2022/12/31 01:21:21;;;;;;;2.28;1.40;;;;;;;15.26;68.50;99830.00;683336;28;1051;-77
2022/12/31 01:21:43;;;;;;;1.90;1.30;;;;;;;15.28;68.57;99838.75;683154;28;1307;-77
2022/12/31 01:22:03;;;;;;;1.95;1.30;;;;;;;15.28;68.62;99834.38;685940;28;1144;-77
2022/12/31 01:22:24;;;;;;;1.57;1.30;;;;;;;15.26;68.59;99838.78;683153;28;1176;-76
2022/12/31 01:22:45;;;;;;;1.83;1.30;;;;;;;15.26;68.45;99832.63;685880;28;1283;-76
2022/12/31 01:23:06;;;;;;;1.60;1.20;;;;;;;15.28;68.62;99822.97;686045;28;1136;-77
2022/12/31 01:23:27;;;;;;;1.40;1.30;;;;;;;15.30;68.60;99837.84;686046;28;849;-77
2022/12/31 01:23:48;;;;;;;1.40;1.30;;;;;;;15.27;68.52;99827.38;688577;28;1052;-76
2022/12/31 01:24:10;;;;;;;1.50;1.40;;;;;;;15.31;68.63;99834.34;688678;28;983;-77
2022/12/31 01:24:31;;;;;;;1.40;1.30;;;;;;;15.28;68.57;99834.38;691382;28;1106;-77
2022/12/31 01:24:51;;;;;;;1.40;1.30;;;;;;;15.29;68.52;99832.59;691287;28;996;-77
2022/12/31 01:25:12;;;;;;;1.30;1.20;;;;;;;15.37;68.48;99845.72;691344;28;1206;-77
2022/12/31 01:25:38;;;;;;;1.30;1.20;;;;;;;15.33;68.51;99835.22;691295;28;1248;-78
2022/12/31 01:26:00;;;;;;;1.30;1.20;;;;;;;15.33;68.74;99836.97;685939;28;2106;-78
2022/12/31 01:26:21;;;;;;;1.30;1.20;;;;;;;15.29;68.64;99841.38;688714;28;1043;-76
2022/12/31 01:26:42;;;;;;;1.30;1.20;;;;;;;15.26;68.51;99824.75;688242;28;1188;-76
2022/12/31 01:27:02;;;;;;;1.60;1.40;;;;;;;15.28;68.49;99828.22;691322;28;1039;-76
2022/12/31 01:27:23;;;;;;;1.80;1.50;;;;;;;15.30;68.33;99823.84;688695;28;933;-77
2022/12/31 01:27:43;;;;;;;1.80;1.40;;;;;;;15.28;68.61;99829.13;688595;28;1039;-76
2022/12/31 01:28:05;;;;;;;1.40;1.30;;;;;;;15.29;68.59;99825.59;688627;28;1179;-76
2022/12/31 01:28:26;;;;;;;1.20;1.10;;;;;;;15.32;68.56;99824.72;685949;28;1287;-76
2022/12/31 01:28:47;;;;;;;1.27;1.17;;;;;;;15.34;68.58;99836.09;685801;28;1369;-76
2022/12/31 01:29:09;;;;;;;1.23;1.13;;;;;;;15.30;68.54;99831.75;685941;28;1101;-76
2022/12/31 01:29:30;;;;;;;1.30;1.20;;;;;;;15.29;68.48;99825.59;683285;29;1242;-76
2022/12/31 01:29:50;;;;;;;1.40;1.30;;;;;;;15.30;68.55;99827.34;683889;28;1093;-76
2022/12/31 01:30:11;;;;;;;1.30;1.20;;;;;;;15.36;68.53;99826.41;686992;28;1074;-76
2022/12/31 01:30:31;;;;;;;1.40;1.30;;;;;;;15.27;68.54;99815.97;689099;28;1057;-77
2022/12/31 01:30:52;;;;;;;1.50;1.40;;;;;;;15.31;68.65;99823.81;691766;28;1083;-76
2022/12/31 01:31:15;;;;;;;1.70;1.50;;;;;;;15.27;68.52;99824.75;688674;28;1243;-77
2022/12/31 01:31:37;;;;;;;1.77;1.50;;;;;;;15.34;68.65;99823.81;686016;28;1008;-77
2022/12/31 01:31:58;;;;;;;1.50;1.40;;;;;;;15.29;68.54;99817.72;688547;28;1884;-76
2022/12/31 01:32:18;;;;;;;1.50;1.40;;;;;;;15.28;68.60;99813.34;685979;28;1172;-76
2022/12/31 01:32:39;;;;;;;1.40;1.30;;;;;;;15.28;68.57;99815.09;685969;28;1223;-77
2022/12/31 01:32:59;;;;;;;1.40;1.30;;;;;;;15.28;68.66;99817.72;686064;28;1082;-76
2022/12/31 01:33:20;;;;;;;1.40;1.30;;;;;;;15.26;68.57;99814.22;688647;28;1135;-77
2022/12/31 01:33:42;;;;;;;1.50;1.40;;;;;;;15.29;68.63;99822.97;688539;28;1145;-76
2022/12/31 01:34:03;;;;;;;1.50;1.40;;;;;;;15.30;68.66;99822.09;691337;28;1249;-77
2022/12/31 01:34:24;;;;;;;1.50;1.40;;;;;;;15.31;68.63;99823.81;686006;28;862;-76
2022/12/31 01:34:46;;;;;;;1.88;1.50;;;;;;;15.29;68.72;99825.59;688578;28;988;-77
2022/12/31 01:35:07;;;;;;;1.80;1.58;;;;;;;15.27;68.76;99816.84;688631;28;1354;-77
2022/12/31 01:35:27;;;;;;;1.70;1.60;;;;;;;15.31;68.60;99828.22;689518;28;834;-76
2022/12/31 01:35:48;;;;;;;1.53;1.43;;;;;;;15.27;68.66;99808.97;683139;28;1158;-76
2022/12/31 01:36:23;;;;;;;1.50;1.40;;;;;;;15.31;68.74;99818.56;688557;28;1147;-77
2022/12/31 01:36:43;;;;;;;1.58;1.48;;;;;;;15.29;68.60;99820.34;688351;28;1084;-76
2022/12/31 01:37:04;;;;;;;1.67;1.57;;;;;;;15.31;68.50;99818.56;688609;28;1265;-76
2022/12/31 01:37:25;;;;;;;2.40;1.50;;;;;;;15.33;68.72;99831.72;685843;28;1411;-77
2022/12/31 01:37:46;;;;;;;2.22;1.50;;;;;;;15.39;68.59;99825.53;683282;28;1069;-77
2022/12/31 01:38:06;;;;;;;2.08;1.42;;;;;;;15.32;68.70;99819.47;685909;28;1037;-76
2022/12/31 01:38:27;;;;;;;1.70;1.40;;;;;;;15.39;68.65;99826.41;685886;28;1989;-76
2022/12/31 01:38:48;;;;;;;1.55;1.30;;;;;;;15.39;68.66;99826.41;683200;29;1075;-76
2022/12/31 01:39:10;;;;;;;1.35;1.27;;;;;;;15.29;68.66;99815.09;683401;29;1092;-77
2022/12/31 01:39:30;;;;;;;1.50;1.40;;;;;;;15.33;68.75;99810.69;683191;29;1207;-77
2022/12/31 01:39:51;;;;;;;1.67;1.50;;;;;;;15.31;68.79;99815.94;683236;29;1085;-77
2022/12/31 01:40:12;;;;;;;1.83;1.60;;;;;;;15.38;68.53;99815.91;685883;28;1032;-77
2022/12/31 01:40:37;;;;;;;1.80;1.70;;;;;;;15.34;68.64;99807.16;688630;28;1320;-76
2022/12/31 01:40:58;;;;;;;1.60;1.50;;;;;;;15.30;68.71;99797.56;688540;28;1267;-76
2022/12/31 01:41:22;;;;;;;1.60;1.50;;;;;;;15.32;68.72;99809.78;688721;28;1159;-76
2022/12/31 01:41:45;;;;;;;1.67;1.58;;;;;;;15.35;68.75;99809.78;685879;28;1175;-76
2022/12/31 01:42:10;;;;;;;1.88;1.77;;;;;;;15.31;68.65;99797.53;688632;28;1176;-77
2022/12/31 01:42:30;;;;;;;1.80;1.70;;;;;;;15.34;68.64;99801.91;688532;28;1139;-76
2022/12/31 01:42:55;;;;;;;1.70;1.60;;;;;;;15.31;68.75;99802.81;685648;28;1158;-76
2022/12/31 01:43:18;;;;;;;1.42;1.33;;;;;;;15.31;68.76;99796.69;691258;28;1378;-77
2022/12/31 01:43:44;;;;;;;1.50;1.40;;;;;;;15.41;68.90;99814.13;691242;28;1415;-76
2022/12/31 01:44:11;;;;;;;1.60;1.50;;;;;;;15.41;68.88;99829.00;688385;28;1351;-76
2022/12/31 01:44:31;;;;;;;1.52;1.42;;;;;;;15.41;68.73;99818.50;685721;28;989;-76
2022/12/31 01:44:54;;;;;;;3.17;1.40;;;;;;;15.32;68.56;99804.53;685941;28;1191;-76